sensor_id;sensor_type;location;lat;lon;timestamp;P1;durP1;ratioP1;P2;durP2;ratioP2
74259;SDS011;62630;55.874;37.516;2023-01-19T00:00:45;16.33;;;7.68;;
74259;SDS011;62630;55.874;37.516;2023-01-19T00:03:11;23.13;;;9.05;;
74259;SDS011;62630;55.874;37.516;2023-01-19T00:05:40;20.20;;;8.65;;
74259;SDS011;62630;55.874;37.516;2023-01-19T00:08:07;15.18;;;7.07;;
74259;SDS011;62630;55.874;37.516;2023-01-19T00:10:39;16.20;;;7.53;;
74259;SDS011;62630;55.874;37.516;2023-01-19T00:13:06;16.60;;;7.03;;
74259;SDS011;62630;55.874;37.516;2023-01-19T00:15:31;16.92;;;7.68;;
74259;SDS011;62630;55.874;37.516;2023-01-19T00:17:57;23.85;;;8.20;;
74259;SDS011;62630;55.874;37.516;2023-01-19T00:20:22;15.38;;;7.38;;
74259;SDS011;62630;55.874;37.516;2023-01-19T00:22:48;17.05;;;7.15;;
74259;SDS011;62630;55.874;37.516;2023-01-19T00:25:15;21.23;;;8.02;;
74259;SDS011;62630;55.874;37.516;2023-01-19T00:27:41;19.27;;;6.88;;
74259;SDS011;62630;55.874;37.516;2023-01-19T00:30:13;14.68;;;7.15;;
74259;SDS011;62630;55.874;37.516;2023-01-19T00:32:40;13.57;;;6.78;;
74259;SDS011;62630;55.874;37.516;2023-01-19T00:35:06;13.02;;;6.40;;
74259;SDS011;62630;55.874;37.516;2023-01-19T00:37:31;15.23;;;7.30;;
74259;SDS011;62630;55.874;37.516;2023-01-19T00:39:57;18.90;;;7.90;;
74259;SDS011;62630;55.874;37.516;2023-01-19T00:42:22;15.57;;;6.43;;
74259;SDS011;62630;55.874;37.516;2023-01-19T00:45:08;14.40;;;6.72;;
74259;SDS011;62630;55.874;37.516;2023-01-19T00:47:34;14.30;;;7.10;;
74259;SDS011;62630;55.874;37.516;2023-01-19T00:49:59;13.23;;;6.07;;
74259;SDS011;62630;55.874;37.516;2023-01-19T00:52:25;16.80;;;8.05;;
74259;SDS011;62630;55.874;37.516;2023-01-19T00:54:50;12.65;;;5.38;;
74259;SDS011;62630;55.874;37.516;2023-01-19T00:57:16;13.18;;;6.10;;
74259;SDS011;62630;55.874;37.516;2023-01-19T00:59:43;12.80;;;6.47;;
74259;SDS011;62630;55.874;37.516;2023-01-19T01:02:09;14.50;;;7.00;;
74259;SDS011;62630;55.874;37.516;2023-01-19T01:04:35;13.50;;;7.15;;
74259;SDS011;62630;55.874;37.516;2023-01-19T01:07:01;15.20;;;6.95;;
74259;SDS011;62630;55.874;37.516;2023-01-19T01:09:28;16.27;;;7.28;;
74259;SDS011;62630;55.874;37.516;2023-01-19T01:11:54;12.23;;;6.10;;
74259;SDS011;62630;55.874;37.516;2023-01-19T01:14:20;17.15;;;6.95;;
74259;SDS011;62630;55.874;37.516;2023-01-19T01:16:47;15.18;;;7.03;;
74259;SDS011;62630;55.874;37.516;2023-01-19T01:19:12;12.95;;;7.15;;
74259;SDS011;62630;55.874;37.516;2023-01-19T01:21:38;16.38;;;7.45;;
74259;SDS011;62630;55.874;37.516;2023-01-19T01:24:03;15.75;;;7.68;;
74259;SDS011;62630;55.874;37.516;2023-01-19T01:26:29;14.00;;;7.10;;
74259;SDS011;62630;55.874;37.516;2023-01-19T01:28:55;18.65;;;6.50;;
74259;SDS011;62630;55.874;37.516;2023-01-19T01:31:20;16.48;;;6.15;;
74259;SDS011;62630;55.874;37.516;2023-01-19T01:33:48;13.63;;;6.93;;
74259;SDS011;62630;55.874;37.516;2023-01-19T01:36:14;15.68;;;7.03;;
74259;SDS011;62630;55.874;37.516;2023-01-19T01:38:40;15.63;;;6.60;;
74259;SDS011;62630;55.874;37.516;2023-01-19T01:41:06;16.27;;;6.63;;
74259;SDS011;62630;55.874;37.516;2023-01-19T01:46:15;13.02;;;7.07;;
74259;SDS011;62630;55.874;37.516;2023-01-19T01:48:42;18.15;;;8.52;;
74259;SDS011;62630;55.874;37.516;2023-01-19T01:51:23;17.77;;;8.50;;
74259;SDS011;62630;55.874;37.516;2023-01-19T01:56:25;14.07;;;7.53;;
74259;SDS011;62630;55.874;37.516;2023-01-19T01:58:56;17.13;;;8.35;;
74259;SDS011;62630;55.874;37.516;2023-01-19T02:01:23;14.13;;;7.55;;
74259;SDS011;62630;55.874;37.516;2023-01-19T02:04:07;16.70;;;7.40;;
74259;SDS011;62630;55.874;37.516;2023-01-19T02:06:33;16.60;;;7.40;;
74259;SDS011;62630;55.874;37.516;2023-01-19T02:09:17;15.93;;;7.68;;
74259;SDS011;62630;55.874;37.516;2023-01-19T02:12:02;16.33;;;8.07;;
74259;SDS011;62630;55.874;37.516;2023-01-19T02:14:46;11.50;;;5.93;;
74259;SDS011;62630;55.874;37.516;2023-01-19T02:17:12;16.52;;;7.45;;
74259;SDS011;62630;55.874;37.516;2023-01-19T02:19:39;13.85;;;7.10;;
74259;SDS011;62630;55.874;37.516;2023-01-19T02:24:49;15.75;;;6.70;;
74259;SDS011;62630;55.874;37.516;2023-01-19T02:27:15;11.82;;;6.03;;
74259;SDS011;62630;55.874;37.516;2023-01-19T02:29:41;15.05;;;6.88;;
74259;SDS011;62630;55.874;37.516;2023-01-19T02:32:07;15.05;;;7.78;;
74259;SDS011;62630;55.874;37.516;2023-01-19T02:34:33;12.18;;;6.88;;
74259;SDS011;62630;55.874;37.516;2023-01-19T02:37:06;12.75;;;6.57;;
74259;SDS011;62630;55.874;37.516;2023-01-19T02:39:36;12.73;;;7.22;;
74259;SDS011;62630;55.874;37.516;2023-01-19T02:42:17;11.73;;;6.15;;
74259;SDS011;62630;55.874;37.516;2023-01-19T02:44:56;14.75;;;7.72;;
74259;SDS011;62630;55.874;37.516;2023-01-19T02:47:22;13.07;;;7.38;;
74259;SDS011;62630;55.874;37.516;2023-01-19T02:49:55;16.45;;;7.60;;
74259;SDS011;62630;55.874;37.516;2023-01-19T02:52:21;15.38;;;7.43;;
74259;SDS011;62630;55.874;37.516;2023-01-19T03:00:36;14.43;;;7.90;;
74259;SDS011;62630;55.874;37.516;2023-01-19T03:11:37;17.60;;;7.20;;
74259;SDS011;62630;55.874;37.516;2023-01-19T03:14:10;16.27;;;7.40;;
74259;SDS011;62630;55.874;37.516;2023-01-19T03:19:09;15.30;;;7.65;;
74259;SDS011;62630;55.874;37.516;2023-01-19T03:21:44;13.27;;;6.97;;
74259;SDS011;62630;55.874;37.516;2023-01-19T03:24:14;13.65;;;7.75;;
74259;SDS011;62630;55.874;37.516;2023-01-19T03:26:42;13.25;;;7.10;;
74259;SDS011;62630;55.874;37.516;2023-01-19T03:29:11;13.60;;;6.93;;
74259;SDS011;62630;55.874;37.516;2023-01-19T03:31:39;14.07;;;7.22;;
74259;SDS011;62630;55.874;37.516;2023-01-19T03:34:08;17.42;;;7.47;;
74259;SDS011;62630;55.874;37.516;2023-01-19T03:39:17;13.40;;;6.15;;
74259;SDS011;62630;55.874;37.516;2023-01-19T03:41:47;14.80;;;6.85;;
74259;SDS011;62630;55.874;37.516;2023-01-19T03:44:14;13.73;;;6.80;;
74259;SDS011;62630;55.874;37.516;2023-01-19T03:46:41;10.20;;;5.88;;
74259;SDS011;62630;55.874;37.516;2023-01-19T03:49:09;9.10;;;5.60;;
74259;SDS011;62630;55.874;37.516;2023-01-19T03:51:36;13.30;;;6.68;;
74259;SDS011;62630;55.874;37.516;2023-01-19T03:54:06;13.00;;;6.57;;
74259;SDS011;62630;55.874;37.516;2023-01-19T03:56:31;11.38;;;5.93;;
74259;SDS011;62630;55.874;37.516;2023-01-19T03:58:57;13.48;;;6.22;;
74259;SDS011;62630;55.874;37.516;2023-01-19T04:01:23;10.85;;;6.22;;
74259;SDS011;62630;55.874;37.516;2023-01-19T04:03:49;15.50;;;6.40;;
74259;SDS011;62630;55.874;37.516;2023-01-19T04:06:15;12.75;;;6.57;;
74259;SDS011;62630;55.874;37.516;2023-01-19T04:08:41;16.02;;;7.45;;
74259;SDS011;62630;55.874;37.516;2023-01-19T04:11:09;13.02;;;6.38;;
74259;SDS011;62630;55.874;37.516;2023-01-19T04:13:40;10.68;;;5.57;;
74259;SDS011;62630;55.874;37.516;2023-01-19T04:16:09;10.10;;;5.63;;
74259;SDS011;62630;55.874;37.516;2023-01-19T04:18:35;14.35;;;6.95;;
74259;SDS011;62630;55.874;37.516;2023-01-19T04:21:02;14.05;;;7.05;;
74259;SDS011;62630;55.874;37.516;2023-01-19T04:23:31;13.32;;;6.40;;
74259;SDS011;62630;55.874;37.516;2023-01-19T04:26:02;13.45;;;6.22;;
74259;SDS011;62630;55.874;37.516;2023-01-19T04:28:30;10.40;;;5.80;;
74259;SDS011;62630;55.874;37.516;2023-01-19T04:30:57;11.35;;;6.55;;
74259;SDS011;62630;55.874;37.516;2023-01-19T04:33:25;12.95;;;6.55;;
74259;SDS011;62630;55.874;37.516;2023-01-19T04:35:51;12.43;;;7.47;;
74259;SDS011;62630;55.874;37.516;2023-01-19T04:38:18;10.70;;;6.65;;
74259;SDS011;62630;55.874;37.516;2023-01-19T04:40:45;13.40;;;6.43;;
74259;SDS011;62630;55.874;37.516;2023-01-19T04:43:15;13.25;;;6.05;;
74259;SDS011;62630;55.874;37.516;2023-01-19T04:45:44;16.10;;;7.20;;
74259;SDS011;62630;55.874;37.516;2023-01-19T04:48:10;13.43;;;6.65;;
74259;SDS011;62630;55.874;37.516;2023-01-19T04:50:45;12.82;;;7.75;;
74259;SDS011;62630;55.874;37.516;2023-01-19T04:53:11;9.35;;;5.80;;
74259;SDS011;62630;55.874;37.516;2023-01-19T04:55:37;13.10;;;6.53;;
74259;SDS011;62630;55.874;37.516;2023-01-19T04:58:06;12.32;;;6.57;;
74259;SDS011;62630;55.874;37.516;2023-01-19T05:00:34;13.43;;;7.18;;
74259;SDS011;62630;55.874;37.516;2023-01-19T05:03:00;8.48;;;4.25;;
74259;SDS011;62630;55.874;37.516;2023-01-19T05:05:34;13.75;;;7.32;;
74259;SDS011;62630;55.874;37.516;2023-01-19T05:08:03;13.73;;;6.38;;
74259;SDS011;62630;55.874;37.516;2023-01-19T05:10:32;18.70;;;7.32;;
74259;SDS011;62630;55.874;37.516;2023-01-19T05:12:57;13.15;;;7.47;;
74259;SDS011;62630;55.874;37.516;2023-01-19T05:15:23;14.23;;;6.93;;
74259;SDS011;62630;55.874;37.516;2023-01-19T05:17:49;12.95;;;5.93;;
74259;SDS011;62630;55.874;37.516;2023-01-19T05:20:16;12.18;;;6.10;;
74259;SDS011;62630;55.874;37.516;2023-01-19T05:22:47;10.82;;;6.35;;
74259;SDS011;62630;55.874;37.516;2023-01-19T05:25:13;14.18;;;7.40;;
74259;SDS011;62630;55.874;37.516;2023-01-19T05:27:39;12.70;;;6.97;;
74259;SDS011;62630;55.874;37.516;2023-01-19T05:30:05;13.30;;;7.07;;
74259;SDS011;62630;55.874;37.516;2023-01-19T05:32:31;17.05;;;7.78;;
74259;SDS011;62630;55.874;37.516;2023-01-19T05:34:57;14.93;;;7.97;;
74259;SDS011;62630;55.874;37.516;2023-01-19T05:37:23;18.15;;;7.97;;
74259;SDS011;62630;55.874;37.516;2023-01-19T05:39:48;14.98;;;8.35;;
74259;SDS011;62630;55.874;37.516;2023-01-19T05:42:14;13.50;;;6.82;;
74259;SDS011;62630;55.874;37.516;2023-01-19T05:44:39;13.73;;;6.95;;
74259;SDS011;62630;55.874;37.516;2023-01-19T05:47:05;13.95;;;6.85;;
74259;SDS011;62630;55.874;37.516;2023-01-19T05:49:32;15.57;;;7.47;;
74259;SDS011;62630;55.874;37.516;2023-01-19T05:54:25;14.13;;;6.50;;
74259;SDS011;62630;55.874;37.516;2023-01-19T05:56:51;12.75;;;7.35;;
74259;SDS011;62630;55.874;37.516;2023-01-19T05:59:17;13.65;;;6.85;;
74259;SDS011;62630;55.874;37.516;2023-01-19T06:01:48;15.90;;;7.28;;
74259;SDS011;62630;55.874;37.516;2023-01-19T06:06:41;16.70;;;6.88;;
74259;SDS011;62630;55.874;37.516;2023-01-19T06:09:06;14.35;;;7.05;;
74259;SDS011;62630;55.874;37.516;2023-01-19T06:11:32;13.55;;;6.70;;
74259;SDS011;62630;55.874;37.516;2023-01-19T06:13:58;12.48;;;7.55;;
74259;SDS011;62630;55.874;37.516;2023-01-19T06:16:23;18.73;;;8.85;;
74259;SDS011;62630;55.874;37.516;2023-01-19T06:18:49;11.65;;;6.47;;
74259;SDS011;62630;55.874;37.516;2023-01-19T06:21:14;15.32;;;7.28;;
74259;SDS011;62630;55.874;37.516;2023-01-19T06:23:40;12.15;;;7.05;;
74259;SDS011;62630;55.874;37.516;2023-01-19T06:26:05;15.75;;;6.90;;
74259;SDS011;62630;55.874;37.516;2023-01-19T06:28:31;16.75;;;6.75;;
74259;SDS011;62630;55.874;37.516;2023-01-19T06:30:56;13.98;;;7.53;;
74259;SDS011;62630;55.874;37.516;2023-01-19T06:33:23;15.38;;;7.15;;
74259;SDS011;62630;55.874;37.516;2023-01-19T06:35:50;15.15;;;8.05;;
74259;SDS011;62630;55.874;37.516;2023-01-19T06:38:16;14.73;;;7.43;;
74259;SDS011;62630;55.874;37.516;2023-01-19T06:40:50;11.45;;;6.30;;
74259;SDS011;62630;55.874;37.516;2023-01-19T06:43:20;15.57;;;7.50;;
74259;SDS011;62630;55.874;37.516;2023-01-19T06:45:46;14.45;;;7.03;;
74259;SDS011;62630;55.874;37.516;2023-01-19T06:48:12;15.52;;;7.18;;
74259;SDS011;62630;55.874;37.516;2023-01-19T06:50:38;12.90;;;6.65;;
74259;SDS011;62630;55.874;37.516;2023-01-19T06:53:04;15.27;;;7.45;;
74259;SDS011;62630;55.874;37.516;2023-01-19T06:55:30;18.13;;;8.63;;
74259;SDS011;62630;55.874;37.516;2023-01-19T06:57:59;15.13;;;6.90;;
74259;SDS011;62630;55.874;37.516;2023-01-19T07:00:25;15.68;;;7.45;;
74259;SDS011;62630;55.874;37.516;2023-01-19T07:02:51;13.75;;;7.03;;
74259;SDS011;62630;55.874;37.516;2023-01-19T07:05:16;16.02;;;6.95;;
74259;SDS011;62630;55.874;37.516;2023-01-19T07:07:42;16.08;;;7.75;;
74259;SDS011;62630;55.874;37.516;2023-01-19T07:10:09;17.63;;;7.93;;
74259;SDS011;62630;55.874;37.516;2023-01-19T07:12:37;14.93;;;7.40;;
74259;SDS011;62630;55.874;37.516;2023-01-19T07:15:03;15.10;;;7.53;;
74259;SDS011;62630;55.874;37.516;2023-01-19T07:17:30;17.48;;;8.23;;
74259;SDS011;62630;55.874;37.516;2023-01-19T07:19:57;16.92;;;6.82;;
74259;SDS011;62630;55.874;37.516;2023-01-19T07:22:23;19.13;;;8.45;;
74259;SDS011;62630;55.874;37.516;2023-01-19T07:24:48;14.38;;;7.07;;
74259;SDS011;62630;55.874;37.516;2023-01-19T07:27:14;16.27;;;7.60;;
74259;SDS011;62630;55.874;37.516;2023-01-19T07:29:40;24.70;;;8.68;;
74259;SDS011;62630;55.874;37.516;2023-01-19T07:32:06;15.43;;;8.32;;
74259;SDS011;62630;55.874;37.516;2023-01-19T07:34:32;17.67;;;8.23;;
74259;SDS011;62630;55.874;37.516;2023-01-19T07:36:58;18.65;;;8.57;;
74259;SDS011;62630;55.874;37.516;2023-01-19T07:39:24;21.33;;;8.77;;
74259;SDS011;62630;55.874;37.516;2023-01-19T07:41:49;20.17;;;9.20;;
74259;SDS011;62630;55.874;37.516;2023-01-19T07:44:15;18.63;;;8.50;;
74259;SDS011;62630;55.874;37.516;2023-01-19T07:46:41;15.60;;;7.30;;
74259;SDS011;62630;55.874;37.516;2023-01-19T07:49:07;16.38;;;8.13;;
74259;SDS011;62630;55.874;37.516;2023-01-19T07:51:33;24.08;;;8.27;;
74259;SDS011;62630;55.874;37.516;2023-01-19T07:53:59;22.02;;;9.43;;
74259;SDS011;62630;55.874;37.516;2023-01-19T07:56:25;19.90;;;7.85;;
74259;SDS011;62630;55.874;37.516;2023-01-19T07:58:53;17.67;;;7.97;;
74259;SDS011;62630;55.874;37.516;2023-01-19T08:01:19;16.65;;;8.60;;
74259;SDS011;62630;55.874;37.516;2023-01-19T08:03:46;18.67;;;8.07;;
74259;SDS011;62630;55.874;37.516;2023-01-19T08:06:18;21.42;;;9.07;;
74259;SDS011;62630;55.874;37.516;2023-01-19T08:08:46;20.38;;;8.18;;
74259;SDS011;62630;55.874;37.516;2023-01-19T08:11:12;19.55;;;8.35;;
74259;SDS011;62630;55.874;37.516;2023-01-19T08:13:37;20.17;;;8.77;;
74259;SDS011;62630;55.874;37.516;2023-01-19T08:16:03;18.30;;;9.38;;
74259;SDS011;62630;55.874;37.516;2023-01-19T08:18:29;17.02;;;8.00;;
74259;SDS011;62630;55.874;37.516;2023-01-19T08:20:54;22.38;;;9.30;;
74259;SDS011;62630;55.874;37.516;2023-01-19T08:23:22;21.38;;;8.52;;
74259;SDS011;62630;55.874;37.516;2023-01-19T08:25:48;18.25;;;8.63;;
74259;SDS011;62630;55.874;37.516;2023-01-19T08:28:14;16.95;;;8.43;;
74259;SDS011;62630;55.874;37.516;2023-01-19T08:30:41;23.52;;;9.15;;
74259;SDS011;62630;55.874;37.516;2023-01-19T08:33:17;20.45;;;8.52;;
74259;SDS011;62630;55.874;37.516;2023-01-19T08:35:45;18.92;;;9.45;;
74259;SDS011;62630;55.874;37.516;2023-01-19T08:38:13;25.42;;;8.85;;
74259;SDS011;62630;55.874;37.516;2023-01-19T08:40:39;16.67;;;8.05;;
74259;SDS011;62630;55.874;37.516;2023-01-19T08:43:14;16.08;;;8.70;;
74259;SDS011;62630;55.874;37.516;2023-01-19T08:45:41;18.08;;;8.55;;
74259;SDS011;62630;55.874;37.516;2023-01-19T08:48:13;17.70;;;9.40;;
74259;SDS011;62630;55.874;37.516;2023-01-19T08:50:41;16.08;;;8.88;;
74259;SDS011;62630;55.874;37.516;2023-01-19T08:53:09;17.65;;;9.23;;
74259;SDS011;62630;55.874;37.516;2023-01-19T08:55:35;14.95;;;8.35;;
74259;SDS011;62630;55.874;37.516;2023-01-19T08:58:02;21.02;;;9.50;;
74259;SDS011;62630;55.874;37.516;2023-01-19T09:00:29;21.77;;;8.57;;
74259;SDS011;62630;55.874;37.516;2023-01-19T09:02:58;16.33;;;8.57;;
74259;SDS011;62630;55.874;37.516;2023-01-19T09:05:27;16.67;;;8.40;;
74259;SDS011;62630;55.874;37.516;2023-01-19T09:07:52;19.08;;;8.65;;
74259;SDS011;62630;55.874;37.516;2023-01-19T09:10:25;15.50;;;7.95;;
74259;SDS011;62630;55.874;37.516;2023-01-19T09:13:05;15.82;;;8.60;;
74259;SDS011;62630;55.874;37.516;2023-01-19T09:15:35;18.52;;;10.05;;
74259;SDS011;62630;55.874;37.516;2023-01-19T09:18:04;18.90;;;8.43;;
74259;SDS011;62630;55.874;37.516;2023-01-19T09:20:37;19.90;;;8.98;;
74259;SDS011;62630;55.874;37.516;2023-01-19T09:23:06;21.17;;;8.98;;
74259;SDS011;62630;55.874;37.516;2023-01-19T09:25:34;18.75;;;8.90;;
74259;SDS011;62630;55.874;37.516;2023-01-19T09:28:01;15.75;;;8.38;;
74259;SDS011;62630;55.874;37.516;2023-01-19T09:30:27;17.10;;;8.15;;
74259;SDS011;62630;55.874;37.516;2023-01-19T09:32:53;17.83;;;8.68;;
74259;SDS011;62630;55.874;37.516;2023-01-19T09:35:18;19.35;;;9.05;;
74259;SDS011;62630;55.874;37.516;2023-01-19T09:37:45;18.23;;;8.98;;
74259;SDS011;62630;55.874;37.516;2023-01-19T09:40:11;16.77;;;9.52;;
74259;SDS011;62630;55.874;37.516;2023-01-19T09:42:43;19.20;;;8.85;;
74259;SDS011;62630;55.874;37.516;2023-01-19T09:45:37;20.13;;;8.48;;
74259;SDS011;62630;55.874;37.516;2023-01-19T09:48:04;16.02;;;7.65;;
74259;SDS011;62630;55.874;37.516;2023-01-19T09:50:48;19.42;;;9.30;;
74259;SDS011;62630;55.874;37.516;2023-01-19T09:53:17;21.55;;;9.68;;
74259;SDS011;62630;55.874;37.516;2023-01-19T09:55:59;18.67;;;9.10;;
74259;SDS011;62630;55.874;37.516;2023-01-19T09:58:24;19.02;;;9.18;;
74259;SDS011;62630;55.874;37.516;2023-01-19T10:00:53;20.00;;;9.93;;
74259;SDS011;62630;55.874;37.516;2023-01-19T10:03:26;16.42;;;8.95;;
74259;SDS011;62630;55.874;37.516;2023-01-19T10:06:03;26.52;;;10.45;;
74259;SDS011;62630;55.874;37.516;2023-01-19T10:08:38;20.15;;;9.65;;
74259;SDS011;62630;55.874;37.516;2023-01-19T10:11:52;19.90;;;9.80;;
74259;SDS011;62630;55.874;37.516;2023-01-19T10:14:16;26.85;;;9.35;;
74259;SDS011;62630;55.874;37.516;2023-01-19T10:16:52;23.15;;;9.50;;
74259;SDS011;62630;55.874;37.516;2023-01-19T10:19:30;20.40;;;9.57;;
74259;SDS011;62630;55.874;37.516;2023-01-19T10:22:03;26.38;;;11.25;;
74259;SDS011;62630;55.874;37.516;2023-01-19T10:24:46;20.05;;;9.90;;
74259;SDS011;62630;55.874;37.516;2023-01-19T10:27:17;25.60;;;11.05;;
74259;SDS011;62630;55.874;37.516;2023-01-19T10:29:46;22.08;;;11.00;;
74259;SDS011;62630;55.874;37.516;2023-01-19T10:32:17;25.25;;;10.48;;
74259;SDS011;62630;55.874;37.516;2023-01-19T10:34:46;22.90;;;10.45;;
74259;SDS011;62630;55.874;37.516;2023-01-19T10:39:44;21.10;;;10.15;;
74259;SDS011;62630;55.874;37.516;2023-01-19T10:42:12;29.75;;;11.00;;
74259;SDS011;62630;55.874;37.516;2023-01-19T10:44:41;42.28;;;12.63;;
74259;SDS011;62630;55.874;37.516;2023-01-19T10:47:11;26.52;;;10.57;;
74259;SDS011;62630;55.874;37.516;2023-01-19T10:49:43;29.20;;;12.00;;
74259;SDS011;62630;55.874;37.516;2023-01-19T10:55:04;29.35;;;10.80;;
74259;SDS011;62630;55.874;37.516;2023-01-19T10:57:33;21.42;;;8.93;;
74259;SDS011;62630;55.874;37.516;2023-01-19T11:00:03;23.38;;;10.80;;
74259;SDS011;62630;55.874;37.516;2023-01-19T11:02:30;25.10;;;10.88;;
74259;SDS011;62630;55.874;37.516;2023-01-19T11:05:00;22.67;;;10.65;;
74259;SDS011;62630;55.874;37.516;2023-01-19T11:07:53;28.10;;;11.38;;
74259;SDS011;62630;55.874;37.516;2023-01-19T11:10:20;26.00;;;10.82;;
74259;SDS011;62630;55.874;37.516;2023-01-19T11:16:05;29.02;;;11.38;;
74259;SDS011;62630;55.874;37.516;2023-01-19T11:18:23;28.80;;;12.30;;
74259;SDS011;62630;55.874;37.516;2023-01-19T11:20:58;28.98;;;12.48;;
74259;SDS011;62630;55.874;37.516;2023-01-19T11:23:28;29.83;;;12.43;;
74259;SDS011;62630;55.874;37.516;2023-01-19T11:25:58;27.63;;;11.52;;
74259;SDS011;62630;55.874;37.516;2023-01-19T11:28:33;29.75;;;11.57;;
74259;SDS011;62630;55.874;37.516;2023-01-19T11:31:16;30.23;;;13.23;;
74259;SDS011;62630;55.874;37.516;2023-01-19T11:36:16;30.20;;;12.18;;
74259;SDS011;62630;55.874;37.516;2023-01-19T11:38:45;31.23;;;12.70;;
74259;SDS011;62630;55.874;37.516;2023-01-19T11:41:18;37.92;;;16.10;;
74259;SDS011;62630;55.874;37.516;2023-01-19T11:43:54;44.20;;;16.33;;
74259;SDS011;62630;55.874;37.516;2023-01-19T11:46:23;27.05;;;12.35;;
74259;SDS011;62630;55.874;37.516;2023-01-19T11:49:01;30.75;;;13.93;;
74259;SDS011;62630;55.874;37.516;2023-01-19T11:51:38;31.98;;;13.25;;
74259;SDS011;62630;55.874;37.516;2023-01-19T11:55:11;29.05;;;13.18;;
74259;SDS011;62630;55.874;37.516;2023-01-19T11:57:35;30.13;;;12.95;;
74259;SDS011;62630;55.874;37.516;2023-01-19T12:00:04;27.83;;;13.43;;
74259;SDS011;62630;55.874;37.516;2023-01-19T12:02:46;26.98;;;12.65;;
74259;SDS011;62630;55.874;37.516;2023-01-19T12:05:15;33.20;;;13.30;;
74259;SDS011;62630;55.874;37.516;2023-01-19T12:07:44;33.58;;;13.15;;
74259;SDS011;62630;55.874;37.516;2023-01-19T12:10:19;25.00;;;12.05;;
74259;SDS011;62630;55.874;37.516;2023-01-19T12:12:53;33.22;;;14.25;;
74259;SDS011;62630;55.874;37.516;2023-01-19T12:18:03;31.05;;;12.00;;
74259;SDS011;62630;55.874;37.516;2023-01-19T12:20:42;34.13;;;13.25;;
74259;SDS011;62630;55.874;37.516;2023-01-19T12:26:50;29.08;;;12.32;;
74259;SDS011;62630;55.874;37.516;2023-01-19T12:29:11;34.40;;;13.25;;
74259;SDS011;62630;55.874;37.516;2023-01-19T12:31:42;31.75;;;13.65;;
74259;SDS011;62630;55.874;37.516;2023-01-19T12:37:03;33.30;;;12.98;;
74259;SDS011;62630;55.874;37.516;2023-01-19T12:39:31;33.75;;;13.73;;
74259;SDS011;62630;55.874;37.516;2023-01-19T12:42:03;36.53;;;14.35;;
74259;SDS011;62630;55.874;37.516;2023-01-19T12:44:39;38.53;;;14.48;;
74259;SDS011;62630;55.874;37.516;2023-01-19T12:54:39;38.58;;;13.98;;
74259;SDS011;62630;55.874;37.516;2023-01-19T12:57:13;36.75;;;14.52;;
74259;SDS011;62630;55.874;37.516;2023-01-19T12:59:56;36.35;;;14.60;;
74259;SDS011;62630;55.874;37.516;2023-01-19T13:18:57;34.70;;;15.18;;
74259;SDS011;62630;55.874;37.516;2023-01-19T13:21:42;29.42;;;13.52;;
74259;SDS011;62630;55.874;37.516;2023-01-19T13:24:11;33.95;;;13.80;;
74259;SDS011;62630;55.874;37.516;2023-01-19T13:31:57;35.20;;;13.02;;
74259;SDS011;62630;55.874;37.516;2023-01-19T13:34:28;30.90;;;13.23;;
74259;SDS011;62630;55.874;37.516;2023-01-19T13:37:00;32.33;;;13.18;;
74259;SDS011;62630;55.874;37.516;2023-01-19T13:39:36;29.42;;;13.40;;
74259;SDS011;62630;55.874;37.516;2023-01-19T13:42:07;35.40;;;13.23;;
74259;SDS011;62630;55.874;37.516;2023-01-19T13:44:40;35.38;;;14.43;;
74259;SDS011;62630;55.874;37.516;2023-01-19T13:47:18;30.17;;;13.45;;
74259;SDS011;62630;55.874;37.516;2023-01-19T13:49:49;33.80;;;12.90;;
74259;SDS011;62630;55.874;37.516;2023-01-19T13:52:20;30.10;;;14.18;;
74259;SDS011;62630;55.874;37.516;2023-01-19T13:57:31;38.20;;;13.90;;
74259;SDS011;62630;55.874;37.516;2023-01-19T14:00:04;36.13;;;14.25;;
74259;SDS011;62630;55.874;37.516;2023-01-19T14:10:30;49.70;;;18.77;;
74259;SDS011;62630;55.874;37.516;2023-01-19T14:13:01;41.38;;;16.25;;
74259;SDS011;62630;55.874;37.516;2023-01-19T14:15:38;44.53;;;17.00;;
74259;SDS011;62630;55.874;37.516;2023-01-19T14:20:34;38.03;;;16.48;;
74259;SDS011;62630;55.874;37.516;2023-01-19T14:23:04;34.45;;;16.50;;
74259;SDS011;62630;55.874;37.516;2023-01-19T14:25:31;37.40;;;16.95;;
74259;SDS011;62630;55.874;37.516;2023-01-19T14:30:59;33.13;;;15.32;;
74259;SDS011;62630;55.874;37.516;2023-01-19T14:38:41;34.35;;;14.45;;
74259;SDS011;62630;55.874;37.516;2023-01-19T14:41:20;36.67;;;14.88;;
74259;SDS011;62630;55.874;37.516;2023-01-19T14:44:25;40.80;;;15.13;;
74259;SDS011;62630;55.874;37.516;2023-01-19T14:47:00;33.38;;;15.77;;
74259;SDS011;62630;55.874;37.516;2023-01-19T14:49:30;39.05;;;15.73;;
74259;SDS011;62630;55.874;37.516;2023-01-19T14:52:25;38.90;;;15.82;;
74259;SDS011;62630;55.874;37.516;2023-01-19T14:54:52;40.17;;;17.30;;
74259;SDS011;62630;55.874;37.516;2023-01-19T14:57:20;35.58;;;15.23;;
74259;SDS011;62630;55.874;37.516;2023-01-19T14:59:47;35.42;;;16.98;;
74259;SDS011;62630;55.874;37.516;2023-01-19T15:02:14;32.40;;;14.95;;
74259;SDS011;62630;55.874;37.516;2023-01-19T15:04:42;30.83;;;14.65;;
74259;SDS011;62630;55.874;37.516;2023-01-19T15:07:21;33.45;;;15.65;;
74259;SDS011;62630;55.874;37.516;2023-01-19T15:09:50;30.23;;;14.63;;
74259;SDS011;62630;55.874;37.516;2023-01-19T15:12:16;27.23;;;11.73;;
74259;SDS011;62630;55.874;37.516;2023-01-19T15:14:44;23.45;;;11.32;;
74259;SDS011;62630;55.874;37.516;2023-01-19T15:17:17;25.33;;;11.05;;
74259;SDS011;62630;55.874;37.516;2023-01-19T15:19:53;25.52;;;11.10;;
74259;SDS011;62630;55.874;37.516;2023-01-19T15:22:28;23.90;;;11.00;;
74259;SDS011;62630;55.874;37.516;2023-01-19T15:30:36;26.42;;;10.90;;
74259;SDS011;62630;55.874;37.516;2023-01-19T15:33:12;18.80;;;10.60;;
74259;SDS011;62630;55.874;37.516;2023-01-19T15:35:45;22.27;;;9.82;;
74259;SDS011;62630;55.874;37.516;2023-01-19T15:38:11;21.52;;;10.52;;
74259;SDS011;62630;55.874;37.516;2023-01-19T15:40:37;17.50;;;9.07;;
74259;SDS011;62630;55.874;37.516;2023-01-19T15:43:03;24.00;;;10.23;;
74259;SDS011;62630;55.874;37.516;2023-01-19T15:45:35;19.17;;;10.32;;
74259;SDS011;62630;55.874;37.516;2023-01-19T15:48:10;22.50;;;9.55;;
74259;SDS011;62630;55.874;37.516;2023-01-19T15:50:46;16.75;;;8.68;;
74259;SDS011;62630;55.874;37.516;2023-01-19T15:55:50;17.77;;;8.93;;
74259;SDS011;62630;55.874;37.516;2023-01-19T15:58:19;16.92;;;9.30;;
74259;SDS011;62630;55.874;37.516;2023-01-19T16:00:52;19.90;;;9.50;;
74259;SDS011;62630;55.874;37.516;2023-01-19T16:03:20;15.30;;;7.80;;
74259;SDS011;62630;55.874;37.516;2023-01-19T16:05:45;17.27;;;8.20;;
74259;SDS011;62630;55.874;37.516;2023-01-19T16:08:12;15.95;;;7.65;;
74259;SDS011;62630;55.874;37.516;2023-01-19T16:10:39;14.25;;;7.70;;
74259;SDS011;62630;55.874;37.516;2023-01-19T16:13:09;14.05;;;8.25;;
74259;SDS011;62630;55.874;37.516;2023-01-19T16:15:48;14.98;;;7.55;;
74259;SDS011;62630;55.874;37.516;2023-01-19T16:18:18;14.80;;;8.88;;
74259;SDS011;62630;55.874;37.516;2023-01-19T16:20:44;15.68;;;7.50;;
74259;SDS011;62630;55.874;37.516;2023-01-19T16:23:10;17.27;;;7.90;;